Time;durP1;ratioP1;P1;durP2;ratioP2;P2;SDS_P1;SDS_P2;PMS_P1;PMS_P2;Temp;Humidity;BMP_temperature;BMP_pressure;BME280_temperature;BME280_humidity;BME280_pressure;Samples;Min_cycle;Max_cycle;Signal;HPM_P1;HPM_P2
2022/05/03 00:00:42;;;;;;;8.15;2.65;;;;;;;18.99;39.95;98460.00;4424022;32;20078;-87
2022/05/03 00:03:35;;;;;;;7.57;2.78;;;;;;;18.90;39.62;98456.34;4410984;32;20209;-87
2022/05/03 00:06:06;;;;;;;6.55;2.60;;;;;;;18.91;39.10;98460.72;4423986;32;20122;-87
2022/05/03 00:09:09;;;;;;;6.68;2.50;;;;;;;18.93;39.26;98452.53;4411130;32;20090;-87
2022/05/03 00:11:51;;;;;;;7.62;2.40;;;;;;;18.93;39.72;98456.06;4423897;32;20081;-87
2022/05/03 00:14:45;;;;;;;7.57;2.75;;;;;;;18.92;39.35;98458.88;4411104;32;20113;-87
2022/05/03 00:17:15;;;;;;;7.72;2.58;;;;;;;18.91;39.02;98455.38;4410817;32;20130;-87
2022/05/03 00:19:41;;;;;;;6.70;2.67;;;;;;;18.89;38.93;98452.03;4411074;32;20098;-87
2022/05/03 00:22:06;;;;;;;7.20;2.85;;;;;;;18.90;38.94;98455.53;4398258;32;20126;-87
2022/05/03 00:24:32;;;;;;;7.20;2.60;;;;;;;18.88;39.21;98450.31;4410916;32;20173;-87
2022/05/03 00:26:57;;;;;;;7.40;2.45;;;;;;;18.88;39.33;98455.66;4410897;32;20381;-87
2022/05/03 00:29:23;;;;;;;7.93;2.67;;;;;;;18.91;39.50;98449.19;4423720;32;20136;-86
2022/05/03 00:31:49;;;;;;;6.72;2.60;;;;;;;18.86;39.69;98446.97;4428015;32;20092;-87
2022/05/03 00:34:15;;;;;;;8.20;2.92;;;;;;;18.88;39.50;98449.50;4473627;32;20111;-86
2022/05/03 00:36:41;;;;;;;6.85;2.70;;;;;;;18.89;39.11;98449.34;4473812;32;20177;-86
2022/05/03 00:39:06;;;;;;;7.60;2.40;;;;;;;18.83;39.28;98452.56;4488265;32;20128;-87
2022/05/03 00:41:43;;;;;;;8.38;2.75;;;;;;;18.84;39.19;98448.94;4488324;32;20127;-87
2022/05/03 00:47:09;;;;;;;8.90;2.87;;;;;;;18.76;39.42;98449.62;4488074;32;20546;-87
2022/05/03 00:49:41;;;;;;;8.88;3.30;;;;;;;18.73;39.64;98452.56;4473660;32;20179;-87
2022/05/03 00:52:21;;;;;;;9.73;2.95;;;;;;;18.74;40.07;98453.44;4487819;32;20153;-87
2022/05/03 00:55:08;;;;;;;8.35;3.08;;;;;;;18.56;39.97;98450.62;4473597;32;20410;-86
2022/05/03 00:57:53;;;;;;;8.48;3.20;;;;;;;18.58;39.92;98444.19;4487859;32;20092;-87
2022/05/03 01:00:20;;;;;;;9.70;3.00;;;;;;;18.58;39.99;98452.19;4473475;32;20088;-87
2022/05/03 01:03:10;;;;;;;9.05;2.90;;;;;;;18.56;40.34;98450.62;4460533;32;20089;-87
2022/05/03 01:06:01;;;;;;;9.45;3.00;;;;;;;18.56;40.72;98439.97;4473578;32;20503;-88
2022/05/03 01:08:33;;;;;;;9.63;2.78;;;;;;;18.55;40.93;98440.97;4487410;32;20084;-87
2022/05/03 01:11:16;;;;;;;7.05;2.75;;;;;;;18.49;41.21;98449.53;4473513;32;20085;-87
2022/05/03 01:13:58;;;;;;;11.52;2.83;;;;;;;18.47;41.22;98436.34;4473458;32;20482;-86
2022/05/03 01:16:28;;;;;;;8.05;2.50;;;;;;;18.46;41.24;98438.13;4473484;32;20157;-87
2022/05/03 01:19:03;;;;;;;7.40;2.60;;;;;;;18.43;41.33;98446.44;4473531;32;20152;-86
2022/05/03 01:21:47;;;;;;;7.10;2.70;;;;;;;18.41;41.51;98447.56;4487649;32;20391;-86
2022/05/03 01:24:28;;;;;;;7.43;2.60;;;;;;;18.38;41.66;98442.50;4473288;32;20089;-86
2022/05/03 01:27:24;;;;;;;8.02;2.95;;;;;;;18.32;41.52;98445.75;4487702;32;20089;-87
2022/05/03 01:29:50;;;;;;;8.45;2.83;;;;;;;18.27;41.22;98436.34;4473560;32;20126;-87
2022/05/03 01:32:19;;;;;;;8.48;3.10;;;;;;;18.23;41.16;98442.97;4487845;32;20397;-87
2022/05/03 01:34:46;;;;;;;6.62;2.60;;;;;;;18.19;41.20;98440.69;4487837;32;20104;-87
2022/05/03 01:37:49;;;;;;;10.20;2.67;;;;;;;18.22;41.35;98443.09;4473263;32;20494;-87
2022/05/03 01:40:33;;;;;;;7.20;2.60;;;;;;;18.19;41.69;98444.19;4487575;32;20093;-87
2022/05/03 01:43:49;;;;;;;7.97;2.67;;;;;;;18.15;41.38;98442.78;4473259;32;20118;-87
2022/05/03 01:46:18;;;;;;;8.15;2.58;;;;;;;18.16;41.83;98439.16;4407829;32;20157;-86
2022/05/03 01:51:53;;;;;;;8.32;2.78;;;;;;;18.10;42.15;98438.87;4408006;32;20163;-87
2022/05/03 01:54:51;;;;;;;8.02;2.60;;;;;;;18.11;41.76;98437.91;4395143;32;20125;-87
2022/05/03 01:57:22;;;;;;;7.25;2.60;;;;;;;18.11;41.54;98443.22;4395129;32;20109;-86
2022/05/03 02:00:10;;;;;;;8.20;2.97;;;;;;;18.07;41.26;98446.16;4395220;32;20114;-87
2022/05/03 02:02:47;;;;;;;6.80;2.80;;;;;;;18.08;41.32;98445.19;4395177;32;20109;-87
2022/05/03 02:05:31;;;;;;;10.10;2.78;;;;;;;18.13;41.18;98438.59;4407763;32;20409;-87
2022/05/03 02:07:57;;;;;;;7.72;2.70;;;;;;;18.11;41.34;98438.72;4407681;32;20263;-87
2022/05/03 02:11:11;;;;;;;8.23;3.28;;;;;;;18.09;41.37;98448.69;4407784;32;20555;-87
2022/05/03 02:16:45;;;;;;;7.90;2.50;;;;;;;18.01;40.95;98446.72;4407676;32;20109;-87
2022/05/03 02:19:48;;;;;;;7.20;2.72;;;;;;;18.03;41.08;98446.59;4406747;32;20155;-86
2022/05/03 02:22:35;;;;;;;10.82;2.90;;;;;;;18.05;41.26;98441.97;4472031;32;20451;-86
2022/05/03 02:25:21;;;;;;;7.12;2.50;;;;;;;18.00;41.37;98439.72;4487387;32;20165;-87
2022/05/03 02:27:52;;;;;;;6.78;2.70;;;;;;;18.00;41.45;98441.53;4487248;32;20088;-87
2022/05/03 02:30:18;;;;;;;6.47;2.42;;;;;;;17.90;41.95;98451.34;4472984;32;20340;-87
2022/05/03 02:32:54;;;;;;;7.00;2.70;;;;;;;17.97;42.46;98442.66;4472968;32;20108;-87
2022/05/03 02:35:24;;;;;;;7.97;2.72;;;;;;;17.95;42.63;98451.78;4460048;32;20217;-87
2022/05/03 02:37:55;;;;;;;6.55;2.70;;;;;;;17.85;42.96;98451.78;4487076;32;20106;-87
2022/05/03 02:40:25;;;;;;;8.02;2.80;;;;;;;17.79;43.12;98444.28;4487075;32;20076;-86
2022/05/03 02:42:51;;;;;;;6.53;2.55;;;;;;;17.76;42.56;98441.91;4472935;32;20127;-86
2022/05/03 02:45:18;;;;;;;8.93;3.08;;;;;;;17.72;42.36;98437.84;4459920;32;20474;-86
2022/05/03 02:47:51;;;;;;;7.12;2.85;;;;;;;17.72;42.58;98435.16;4473052;32;20405;-86
2022/05/03 02:50:25;;;;;;;7.85;2.80;;;;;;;17.70;42.88;98445.97;4473137;32;20110;-86
2022/05/03 02:52:56;;;;;;;7.22;2.78;;;;;;;17.65;42.58;98445.50;4473186;32;20139;-86
2022/05/03 02:55:28;;;;;;;7.68;2.80;;;;;;;17.59;41.83;98446.06;4472722;32;20164;-86
2022/05/03 02:58:10;;;;;;;7.43;2.60;;;;;;;17.61;41.91;98444.09;4486977;32;20420;-86
2022/05/03 03:04:02;;;;;;;8.18;2.87;;;;;;;17.57;42.03;98435.53;4486999;32;20143;-86
2022/05/03 03:06:32;;;;;;;9.05;2.85;;;;;;;17.58;41.97;98445.22;4486947;32;20092;-87
2022/05/03 03:08:57;;;;;;;7.90;2.90;;;;;;;17.40;41.75;98444.19;4486880;32;20117;-86
2022/05/03 03:12:00;;;;;;;8.98;3.00;;;;;;;17.08;42.28;98443.38;4472583;32;20106;-87
2022/05/03 03:14:40;;;;;;;8.75;3.00;;;;;;;17.37;41.86;98442.66;4486840;32;20088;-85
2022/05/03 03:17:07;;;;;;;6.80;2.72;;;;;;;17.42;42.08;98448.41;4459407;32;20425;-86
2022/05/03 03:19:46;;;;;;;8.77;2.85;;;;;;;17.40;42.19;98444.19;4472501;32;20540;-86
2022/05/03 03:22:12;;;;;;;;;;;;;;;17.49;42.03;98438.06;4472798;32;20155;-85
2022/05/03 03:24:38;;;;;;;9.35;2.60;;;;;;;17.57;41.91;98437.38;4472623;32;19984;-85
2022/05/03 03:27:05;;;;;;;7.30;2.47;;;;;;;17.50;42.22;98434.44;4472569;32;20100;-85
2022/05/03 03:29:31;;;;;;;8.55;3.00;;;;;;;17.45;42.16;98441.97;4472373;32;20076;-86
2022/05/03 03:31:59;;;;;;;8.02;2.92;;;;;;;17.37;41.95;98442.66;4459167;32;20132;-85
2022/05/03 03:34:25;;;;;;;7.55;2.78;;;;;;;17.41;41.92;98446.72;4472490;32;20127;-86
2022/05/03 03:36:53;;;;;;;8.07;2.58;;;;;;;17.41;42.19;98446.72;4458775;32;20158;-85
2022/05/03 03:39:18;;;;;;;8.10;2.42;;;;;;;17.44;42.53;98451.78;4472433;32;20131;-86
2022/05/03 03:41:47;;;;;;;7.80;2.72;;;;;;;17.46;42.54;98455.16;4486501;32;20116;-86
2022/05/03 03:44:13;;;;;;;7.20;2.60;;;;;;;17.48;42.60;98452.34;4472637;32;20088;-87
2022/05/03 03:46:38;;;;;;;8.32;2.83;;;;;;;17.49;42.59;98444.22;4472233;32;20723;-87
2022/05/03 03:49:04;;;;;;;7.07;2.60;;;;;;;17.46;42.45;98452.50;4486130;32;20168;-86
2022/05/03 03:51:30;;;;;;;8.27;2.78;;;;;;;17.47;42.23;98461.31;4472139;32;20081;-86
2022/05/03 03:53:56;;;;;;;7.95;2.60;;;;;;;17.50;42.25;98455.72;4471896;32;20108;-88
2022/05/03 03:56:22;;;;;;;8.27;2.70;;;;;;;17.52;42.32;98467.09;4471948;32;20092;-87
2022/05/03 03:58:48;;;;;;;7.28;2.87;;;;;;;17.61;43.00;98470.75;4458994;32;20145;-87
2022/05/03 04:01:13;;;;;;;7.30;2.67;;;;;;;17.62;43.27;98472.44;4485092;32;20099;-87
2022/05/03 04:03:39;;;;;;;8.52;3.25;;;;;;;17.64;43.26;98473.97;4486188;32;20092;-87
2022/05/03 04:06:05;;;;;;;8.95;3.12;;;;;;;17.60;43.35;98474.41;4471808;32;20165;-87
2022/05/03 04:08:30;;;;;;;7.78;2.90;;;;;;;17.74;43.24;98467.84;4471728;32;20088;-87
2022/05/03 04:10:56;;;;;;;9.20;3.00;;;;;;;17.88;42.63;98473.62;4486007;32;20069;-86
2022/05/03 04:13:22;;;;;;;7.57;2.50;;;;;;;17.96;42.42;98482.78;4486063;32;20165;-86
2022/05/03 04:15:50;;;;;;;7.80;2.90;;;;;;;18.09;42.47;98470.03;4485915;32;20111;-86
2022/05/03 04:18:15;;;;;;;;;;;;;;;18.14;41.79;98467.78;4471930;32;20399;-86
2022/05/03 04:20:40;;;;;;;8.25;2.58;;;;;;;18.40;41.55;98475.22;4485879;32;19967;-86
2022/05/03 04:23:06;;;;;;;7.57;2.70;;;;;;;18.45;41.52;98475.66;4485868;32;20100;-86
2022/05/03 04:25:32;;;;;;;7.57;2.90;;;;;;;18.57;42.00;98468.34;4471642;32;20126;-86
2022/05/03 04:27:58;;;;;;;7.32;2.87;;;;;;;18.71;42.12;98470.53;4485950;32;20114;-87
2022/05/03 04:30:23;;;;;;;8.20;3.00;;;;;;;18.86;42.24;98474.47;4471501;32;20352;-83
2022/05/03 04:32:49;;;;;;;7.93;3.03;;;;;;;19.03;41.85;98475.56;4486033;32;20096;-85
2022/05/03 04:35:14;;;;;;;8.90;3.62;;;;;;;19.16;41.86;98469.91;4484851;32;20160;-85
2022/05/03 04:37:39;;;;;;;8.20;3.35;;;;;;;19.31;41.47;98467.59;4485681;32;20096;-85
2022/05/03 04:40:05;;;;;;;8.40;3.00;;;;;;;19.52;41.11;98470.03;4485814;32;20446;-85
2022/05/03 04:42:31;;;;;;;9.13;3.75;;;;;;;19.63;40.43;98460.97;4485907;32;20119;-81
2022/05/03 04:44:56;;;;;;;9.55;3.30;;;;;;;19.77;40.73;98467.69;4487226;32;20128;-82
2022/05/03 04:47:22;;;;;;;8.80;3.30;;;;;;;19.86;40.63;98472.12;4473798;32;20109;-81
2022/05/03 04:49:50;;;;;;;9.63;3.30;;;;;;;19.95;38.43;98473.91;4488059;32;20080;-82
2022/05/03 04:52:15;;;;;;;8.77;3.42;;;;;;;20.15;38.41;98477.28;4488019;31;20181;-80
2022/05/03 04:54:41;;;;;;;8.40;3.37;;;;;;;20.27;41.40;98475.19;4502060;31;20465;-80
2022/05/03 04:57:07;;;;;;;10.20;3.20;;;;;;;20.30;41.58;98477.59;4495967;31;20081;-82
2022/05/03 04:59:33;;;;;;;9.38;3.20;;;;;;;20.37;41.50;98480.47;4486717;32;20407;-81
2022/05/03 05:01:59;;;;;;;10.02;3.40;;;;;;;20.46;39.67;98474.22;4486690;32;20452;-82
2022/05/03 05:04:25;;;;;;;8.65;3.15;;;;;;;20.52;37.24;98473.59;4486166;32;20154;-82
2022/05/03 05:06:50;;;;;;;8.13;3.00;;;;;;;20.68;39.10;98472.06;4487784;31;20077;-82
2022/05/03 05:09:16;;;;;;;7.85;3.17;;;;;;;20.80;41.08;98482.38;4487942;31;20132;-82
2022/05/03 05:11:41;;;;;;;7.70;2.83;;;;;;;20.79;40.93;98475.31;4488043;31;20092;-82
2022/05/03 05:14:07;;;;;;;9.07;2.83;;;;;;;20.93;39.84;98476.59;4486837;32;20116;-81
2022/05/03 05:16:32;;;;;;;7.43;3.22;;;;;;;21.06;39.48;98473.50;4487906;31;20118;-82
2022/05/03 05:18:58;;;;;;;8.60;2.85;;;;;;;21.24;39.11;98478.78;4473606;32;20133;-82
2022/05/03 05:21:23;;;;;;;8.05;3.10;;;;;;;21.15;39.19;98472.56;4487869;31;20112;-82
2022/05/03 05:23:48;;;;;;;9.90;3.60;;;;;;;21.25;38.53;98471.56;4487905;31;20093;-82
2022/05/03 05:26:14;;;;;;;8.73;3.35;;;;;;;21.30;38.44;98477.31;4487718;31;20388;-82
2022/05/03 05:28:40;;;;;;;9.30;3.90;;;;;;;21.36;38.41;98473.97;4473700;32;20129;-82
2022/05/03 05:31:06;;;;;;;9.80;3.58;;;;;;;21.35;38.26;98472.31;4487652;31;20089;-82
2022/05/03 05:33:31;;;;;;;8.20;3.42;;;;;;;21.51;38.03;98467.03;4486380;32;20159;-82
2022/05/03 05:35:56;;;;;;;9.18;3.40;;;;;;;21.48;38.31;98469.19;4487621;31;20106;-82
2022/05/03 05:38:22;;;;;;;9.63;3.62;;;;;;;21.68;38.96;98472.47;4487286;31;20417;-82
2022/05/03 05:40:47;;;;;;;9.32;3.37;;;;;;;21.75;38.87;98471.66;4487583;31;20127;-81
2022/05/03 05:43:16;;;;;;;8.02;3.70;;;;;;;21.80;38.84;98460.44;4486449;32;20112;-83
2022/05/03 05:45:42;;;;;;;10.32;3.70;;;;;;;21.84;37.31;98469.00;4489567;31;20096;-82
2022/05/03 05:48:12;;;;;;;9.75;3.28;;;;;;;21.87;36.95;98471.38;4481098;31;20108;-82
2022/05/03 05:50:38;;;;;;;9.75;3.42;;;;;;;21.99;36.31;98470.88;4495504;31;20108;-82
2022/05/03 05:55:47;;;;;;;8.77;3.47;;;;;;;22.10;36.75;98474.28;4504131;31;20222;-85
2022/05/03 05:58:13;;;;;;;10.88;4.43;;;;;;;22.23;36.87;98474.59;4500917;31;20088;-85
2022/05/03 06:00:39;;;;;;;8.63;3.70;;;;;;;22.29;36.75;98478.50;4503434;31;20446;-86
2022/05/03 06:03:05;;;;;;;8.68;3.70;;;;;;;22.38;36.30;98475.66;4501034;31;20426;-87
2022/05/03 06:05:31;;;;;;;9.80;3.90;;;;;;;22.48;36.74;98471.97;4487094;31;20147;-85
2022/05/03 06:07:57;;;;;;;10.48;4.00;;;;;;;22.37;36.79;98475.84;4503624;31;20458;-83
2022/05/03 06:10:23;;;;;;;9.52;3.97;;;;;;;22.54;36.62;98477.53;4500548;31;20153;-87
2022/05/03 06:12:49;;;;;;;10.40;3.62;;;;;;;22.52;35.72;98476.87;4502007;31;20091;-82
2022/05/03 06:15:15;;;;;;;10.38;3.55;;;;;;;22.56;36.08;98472.84;4478764;31;20212;-83
2022/05/03 06:17:41;;;;;;;9.50;3.80;;;;;;;22.49;34.60;98484.41;4503173;31;20083;-85
2022/05/03 06:20:10;;;;;;;9.57;3.45;;;;;;;22.59;33.94;98474.34;4501052;31;20392;-82
2022/05/03 06:22:36;;;;;;;11.95;4.12;;;;;;;22.73;35.07;98478.19;4500119;31;20622;-83
2022/05/03 06:25:02;;;;;;;9.85;4.10;;;;;;;22.67;33.75;98477.00;4498420;31;20087;-84
2022/05/03 06:27:27;;;;;;;11.02;4.57;;;;;;;22.80;33.31;98476.50;4492881;31;20092;-83
2022/05/03 06:29:53;;;;;;;11.57;5.30;;;;;;;22.80;34.14;98479.19;4494164;31;20126;-84
2022/05/03 06:32:18;;;;;;;11.35;4.55;;;;;;;22.78;33.49;98482.03;4493775;31;20120;-83
2022/05/03 06:34:44;;;;;;;10.52;4.25;;;;;;;22.89;33.87;98480.88;4493052;31;20344;-85
2022/05/03 06:37:09;;;;;;;13.32;4.57;;;;;;;23.05;33.04;98484.56;4494128;31;20348;-80
2022/05/03 06:39:36;;;;;;;9.95;4.07;;;;;;;23.01;32.65;98484.03;4493263;31;20132;-82
2022/05/03 06:42:05;;;;;;;11.00;4.05;;;;;;;23.01;32.01;98478.66;4493345;31;20114;-85
2022/05/03 06:44:31;;;;;;;14.85;4.72;;;;;;;23.23;32.04;98489.72;4476330;31;20530;-82
2022/05/03 06:46:56;;;;;;;11.60;4.60;;;;;;;23.17;32.54;98480.50;4493683;31;20075;-83
2022/05/03 06:49:22;;;;;;;12.30;4.30;;;;;;;23.23;32.72;98479.81;4486187;31;20383;-82
2022/05/03 06:51:47;;;;;;;9.85;3.78;;;;;;;23.25;32.13;98485.00;4492651;31;20103;-81
2022/05/03 06:54:13;;;;;;;13.62;4.97;;;;;;;23.27;31.93;98480.31;4494147;31;20114;-82
2022/05/03 06:56:38;;;;;;;12.85;4.87;;;;;;;23.28;32.23;98479.31;4493332;31;20098;-82
2022/05/03 06:59:04;;;;;;;11.80;4.37;;;;;;;23.33;32.70;98485.84;4483977;31;20096;-82
2022/05/03 07:01:30;;;;;;;11.63;4.75;;;;;;;23.44;32.43;98483.78;4492959;31;20115;-80
2022/05/03 07:03:55;;;;;;;12.40;4.40;;;;;;;23.47;32.72;98478.91;4494210;31;20108;-85
2022/05/03 07:06:21;;;;;;;11.00;4.10;;;;;;;23.60;32.75;98481.00;4494336;31;20092;-86
2022/05/03 07:08:47;;;;;;;14.05;4.62;;;;;;;23.54;32.48;98477.16;4489877;31;20142;-91
2022/05/03 07:11:12;;;;;;;11.70;4.60;;;;;;;23.62;32.51;98486.22;4482233;32;20353;-82
2022/05/03 07:13:38;;;;;;;14.27;5.57;;;;;;;23.51;32.71;98479.41;4486146;31;20106;-83
2022/05/03 07:16:04;;;;;;;12.43;4.62;;;;;;;23.60;32.50;98478.31;4494358;31;20321;-81
2022/05/03 07:23:57;;;;;;;11.32;5.18;;;;;;;23.67;32.49;98494.63;4502309;31;20171;-83
2022/05/03 07:26:23;;;;;;;11.55;4.47;;;;;;;23.73;33.05;98489.38;4487893;31;20068;-83
2022/05/03 07:28:51;;;;;;;10.43;4.03;;;;;;;23.72;32.45;98490.41;4488520;31;20096;-83
2022/05/03 07:31:17;;;;;;;9.85;4.25;;;;;;;23.81;32.63;98487.69;4485003;31;20119;-83
2022/05/03 07:33:43;;;;;;;8.80;3.67;;;;;;;23.84;31.88;98490.88;4483980;32;20421;-83
2022/05/03 07:36:09;;;;;;;9.80;3.80;;;;;;;23.95;31.72;98495.00;4485777;31;20057;-83
2022/05/03 07:38:35;;;;;;;9.88;3.45;;;;;;;24.06;30.95;98488.38;4485726;31;20159;-83
2022/05/03 07:41:01;;;;;;;10.00;3.72;;;;;;;24.07;31.21;98487.38;4485491;31;20088;-83
2022/05/03 07:43:27;;;;;;;9.02;3.92;;;;;;;24.05;31.10;98492.94;4484235;32;20506;-83
2022/05/03 07:45:52;;;;;;;9.57;3.65;;;;;;;24.10;31.22;98481.63;4485985;31;20129;-83
2022/05/03 07:48:18;;;;;;;9.35;3.47;;;;;;;24.16;30.95;98485.47;4485366;32;20096;-83
2022/05/03 07:50:46;;;;;;;11.35;4.55;;;;;;;24.02;31.16;98484.37;4485130;32;20105;-83
2022/05/03 07:53:13;;;;;;;9.73;3.12;;;;;;;24.11;31.10;98481.47;4486491;31;20584;-83
2022/05/03 07:55:39;;;;;;;7.03;2.83;;;;;;;24.20;31.65;98492.16;4485110;32;20080;-83
2022/05/03 07:58:04;;;;;;;8.90;3.03;;;;;;;24.23;30.92;98489.12;4485094;32;20113;-83
2022/05/03 08:00:29;;;;;;;7.22;2.58;;;;;;;24.25;30.37;98489.78;4486316;31;20145;-83
2022/05/03 08:02:55;;;;;;;8.52;3.17;;;;;;;24.21;30.61;98492.00;4486124;31;20105;-83
2022/05/03 08:05:21;;;;;;;8.50;3.22;;;;;;;24.10;30.52;98492.41;4486188;32;20114;-83
2022/05/03 08:07:47;;;;;;;10.13;3.50;;;;;;;24.12;30.69;98485.81;4486148;31;20123;-83
2022/05/03 08:10:12;;;;;;;9.45;3.30;;;;;;;24.22;30.88;98492.81;4486270;31;20091;-83
2022/05/03 08:12:38;;;;;;;9.77;3.05;;;;;;;24.34;30.20;98489.56;4484989;32;20115;-83
2022/05/03 08:15:04;;;;;;;8.23;3.40;;;;;;;24.26;30.94;98496.84;4485981;32;20076;-83
2022/05/03 08:17:30;;;;;;;10.45;3.20;;;;;;;24.38;31.72;98492.72;4486025;31;20131;-83
2022/05/03 08:19:56;;;;;;;11.70;3.35;;;;;;;24.40;31.29;98489.88;4486137;32;20092;-83
2022/05/03 08:22:21;;;;;;;8.85;3.20;;;;;;;24.37;31.01;98496.44;4488126;32;20462;-82
2022/05/03 08:24:47;;;;;;;8.38;3.03;;;;;;;24.29;31.04;98500.00;4486819;32;20102;-83
2022/05/03 08:27:12;;;;;;;12.25;3.65;;;;;;;24.33;31.61;98495.94;4487743;31;20085;-83
2022/05/03 08:29:38;;;;;;;10.75;4.18;;;;;;;24.30;30.60;98490.94;4488031;31;20122;-83
2022/05/03 08:32:04;;;;;;;8.57;3.10;;;;;;;24.24;30.76;98494.34;4487982;32;20395;-83
2022/05/03 08:34:29;;;;;;;10.95;3.78;;;;;;;24.34;30.51;98492.25;4488047;31;20376;-83
2022/05/03 08:42:24;;;;;;;9.88;3.40;;;;;;;24.37;30.98;98491.03;4488079;32;20107;-83
2022/05/03 08:44:49;;;;;;;9.88;3.10;;;;;;;24.38;29.85;98484.66;4486891;32;20073;-83
2022/05/03 08:47:19;;;;;;;8.68;3.00;;;;;;;24.41;29.83;98494.22;4486899;32;20536;-83
2022/05/03 08:50:04;;;;;;;9.55;3.58;;;;;;;24.37;30.06;98492.91;4487087;32;20120;-83
2022/05/03 08:52:33;;;;;;;11.70;3.40;;;;;;;24.47;30.16;98490.78;4488071;31;20085;-83
2022/05/03 08:55:02;;;;;;;8.35;2.83;;;;;;;24.49;30.89;98492.31;4486553;32;20098;-83
2022/05/03 08:57:27;;;;;;;9.63;3.28;;;;;;;24.53;30.18;98492.78;4487849;32;20092;-83
2022/05/03 08:59:54;;;;;;;8.88;3.15;;;;;;;24.59;29.63;98492.09;4487078;32;20100;-83
2022/05/03 09:02:19;;;;;;;10.95;3.12;;;;;;;24.64;29.90;98488.84;4486942;32;20092;-83
2022/05/03 09:04:45;;;;;;;10.07;2.95;;;;;;;24.77;29.42;98486.38;4487021;32;20124;-83
2022/05/03 09:07:31;;;;;;;9.90;2.92;;;;;;;24.67;29.79;98496.59;4487992;31;20140;-83
2022/05/03 09:10:14;;;;;;;9.63;3.47;;;;;;;24.76;29.43;98494.63;4488043;32;20126;-83
2022/05/03 09:12:40;;;;;;;8.25;3.15;;;;;;;24.79;29.82;98491.59;4487778;31;20080;-83
2022/05/03 09:15:06;;;;;;;7.43;2.80;;;;;;;24.75;30.17;98482.22;4486697;32;20091;-83
2022/05/03 09:17:34;;;;;;;7.80;3.05;;;;;;;24.96;28.77;98484.19;4487887;31;20148;-83
2022/05/03 09:23:46;;;;;;;9.48;2.97;;;;;;;24.97;28.39;98489.38;4487890;31;20096;-83
2022/05/03 09:25:34;;;;;;;8.35;2.80;;;;;;;25.02;28.40;98475.38;4487728;32;20098;-83
2022/05/03 09:28:06;;;;;;;8.60;3.40;;;;;;;25.13;27.91;98474.94;4487675;31;20092;-83
2022/05/03 09:30:32;;;;;;;8.13;2.80;;;;;;;25.24;27.37;98466.38;4486160;32;20127;-83
2022/05/03 09:32:57;;;;;;;8.65;3.37;;;;;;;25.25;28.10;98464.56;4486505;32;20088;-83
2022/05/03 09:35:36;;;;;;;8.23;3.05;;;;;;;25.17;27.87;98475.38;4487594;31;20080;-83
2022/05/03 09:38:03;;;;;;;8.70;3.20;;;;;;;25.20;27.74;98473.16;4487470;31;20118;-83
2022/05/03 09:40:34;;;;;;;10.20;3.10;;;;;;;25.26;27.19;98475.13;4487652;31;20114;-83
2022/05/03 09:42:59;;;;;;;8.20;2.95;;;;;;;25.30;26.14;98470.22;4487707;31;20092;-83
2022/05/03 09:45:26;;;;;;;8.35;3.10;;;;;;;25.23;26.21;98475.50;4487497;31;20120;-83
2022/05/03 09:47:53;;;;;;;9.00;3.33;;;;;;;25.34;25.78;98476.91;4487486;31;20443;-83
2022/05/03 09:50:29;;;;;;;;;;;;;;;25.46;25.15;98470.03;4487767;31;20096;-83
2022/05/03 09:52:55;;;;;;;9.23;3.67;;;;;;;25.57;24.74;98468.69;4487624;31;20334;-83
2022/05/03 09:55:32;;;;;;;10.60;3.13;;;;;;;25.52;24.50;98465.75;4486274;32;20076;-83
2022/05/03 09:58:05;;;;;;;9.88;3.40;;;;;;;25.35;22.81;98459.72;4487422;31;20088;-83
2022/05/03 10:00:34;;;;;;;8.40;2.85;;;;;;;25.14;24.28;98464.97;4486612;32;20375;-83
2022/05/03 10:03:04;;;;;;;9.18;3.50;;;;;;;25.28;24.59;98459.63;4487442;31;20080;-83
2022/05/03 10:05:30;;;;;;;9.25;3.28;;;;;;;25.42;25.20;98457.94;4487674;31;20077;-83
2022/05/03 10:07:56;;;;;;;8.38;3.10;;;;;;;25.49;24.79;98453.44;4487663;31;20494;-83
2022/05/03 10:10:23;;;;;;;8.23;3.30;;;;;;;25.51;24.90;98448.72;4486448;32;20092;-84
2022/05/03 10:12:53;;;;;;;9.80;3.33;;;;;;;25.55;22.82;98451.03;4486406;32;20167;-83
2022/05/03 10:21:14;;;;;;;8.45;3.22;;;;;;;25.40;23.22;98446.50;4438448;32;20124;-83
2022/05/03 10:23:39;;;;;;;9.70;3.08;;;;;;;25.03;25.89;98448.22;4425443;32;20393;-84
2022/05/03 10:26:07;;;;;;;9.15;3.37;;;;;;;25.18;25.19;98453.63;4425476;32;20124;-83
2022/05/03 10:29:01;;;;;;;8.82;3.00;;;;;;;25.36;24.35;98447.06;4425484;32;20159;-83
2022/05/03 10:31:26;;;;;;;9.00;2.70;;;;;;;25.41;25.57;98450.88;4438297;32;20503;-83
2022/05/03 10:33:52;;;;;;;9.10;2.90;;;;;;;25.08;27.26;98462.00;4438311;32;20177;-83
2022/05/03 10:36:32;;;;;;;8.82;2.80;;;;;;;24.46;28.85;98460.34;4425141;32;20199;-83
2022/05/03 10:39:26;;;;;;;8.02;3.28;;;;;;;24.73;28.65;98460.84;4425210;32;20511;-83
2022/05/03 10:42:03;;;;;;;8.43;3.00;;;;;;;24.41;28.99;98461.91;4424362;32;20171;-83
2022/05/03 10:44:53;;;;;;;8.93;3.22;;;;;;;24.33;29.72;98460.13;4438418;32;20097;-83
2022/05/03 10:47:20;;;;;;;6.60;2.85;;;;;;;24.25;28.96;98460.19;4438109;32;20456;-84
2022/05/03 10:50:28;;;;;;;7.60;3.03;;;;;;;24.14;28.19;98454.22;4438090;32;20114;-83
2022/05/03 10:52:54;;;;;;;9.75;3.22;;;;;;;23.78;28.68;98458.41;4430436;32;20495;-83
2022/05/03 10:55:20;;;;;;;8.60;3.28;;;;;;;23.61;28.41;98453.13;4461139;32;20122;-83
2022/05/03 10:58:23;;;;;;;8.57;3.40;;;;;;;23.36;28.77;98457.78;4485795;32;20093;-83
2022/05/03 11:01:06;;;;;;;7.78;2.83;;;;;;;22.90;30.61;98457.53;4487261;32;20136;-83
2022/05/03 11:03:33;;;;;;;7.62;3.00;;;;;;;22.50;31.30;98452.03;4487013;32;20517;-83
2022/05/03 11:06:23;;;;;;;7.35;2.72;;;;;;;22.44;32.13;98450.00;4487011;31;20118;-83
2022/05/03 11:08:58;;;;;;;10.18;3.20;;;;;;;22.84;32.79;98442.91;4487052;31;20708;-83
2022/05/03 11:11:52;;;;;;;8.80;3.55;;;;;;;22.99;33.65;98440.38;4486980;31;20092;-83
2022/05/03 11:17:01;;;;;;;11.40;4.05;;;;;;;23.34;33.46;98432.91;4486798;31;20088;-83
2022/05/03 11:19:27;;;;;;;9.52;3.83;;;;;;;23.41;33.62;98438.41;4486763;31;20084;-83
2022/05/03 11:21:52;;;;;;;9.50;3.87;;;;;;;23.44;34.01;98448.84;4485616;32;20474;-83
2022/05/03 11:24:27;;;;;;;9.43;3.60;;;;;;;23.57;34.34;98432.97;4486736;31;20223;-83
2022/05/03 11:27:18;;;;;;;8.25;3.10;;;;;;;23.33;33.12;98450.91;4486853;31;20084;-83
2022/05/03 11:29:48;;;;;;;7.62;3.03;;;;;;;23.54;32.04;98434.16;4483860;32;20081;-83
2022/05/03 11:32:16;;;;;;;6.95;2.90;;;;;;;23.36;31.94;98434.41;4485481;32;20112;-83
2022/05/03 11:34:42;;;;;;;7.15;2.72;;;;;;;23.51;31.49;98431.00;4485618;32;20130;-83
2022/05/03 11:37:08;;;;;;;6.80;2.45;;;;;;;23.36;31.20;98429.03;4485366;32;20119;-83
2022/05/03 11:39:37;;;;;;;7.62;2.37;;;;;;;23.12;30.64;98429.97;4486783;31;20118;-82
2022/05/03 11:42:08;;;;;;;7.60;2.15;;;;;;;23.40;29.96;98421.47;4486774;31;20092;-82
2022/05/03 11:44:34;;;;;;;6.55;2.17;;;;;;;23.31;29.54;98426.03;4486822;32;20118;-83
2022/05/03 11:47:02;;;;;;;5.05;2.00;;;;;;;23.48;29.60;98425.97;4486779;31;20077;-83
2022/05/03 11:49:28;;;;;;;7.82;2.17;;;;;;;23.40;29.21;98424.16;4486340;31;20088;-83
2022/05/03 11:57:26;;;;;;;7.20;2.72;;;;;;;23.28;29.39;98417.50;4487231;32;20541;-83
2022/05/03 11:59:55;;;;;;;7.22;2.45;;;;;;;23.45;29.26;98426.31;4487195;32;20098;-83
2022/05/03 12:02:23;;;;;;;6.85;2.15;;;;;;;23.47;29.47;98417.06;4488285;31;20122;-83
2022/05/03 12:05:07;;;;;;;4.47;1.80;;;;;;;23.49;29.42;98415.03;4488260;31;20497;-82
2022/05/03 12:07:37;;;;;;;7.50;2.10;;;;;;;23.39;28.85;98414.38;4488094;31;20097;-83
2022/05/03 12:10:19;;;;;;;5.35;2.00;;;;;;;23.67;28.62;98416.63;4486949;32;20099;-83
2022/05/03 12:12:48;;;;;;;5.12;2.05;;;;;;;23.67;27.37;98413.94;4488404;31;20147;-82
2022/05/03 12:15:22;;;;;;;7.10;2.25;;;;;;;23.48;27.15;98409.84;4486885;32;20088;-83
2022/05/03 12:17:55;;;;;;;7.00;2.03;;;;;;;23.82;25.50;98417.59;4486862;32;20179;-83
2022/05/03 12:20:21;;;;;;;6.85;2.30;;;;;;;23.88;24.49;98410.66;4487042;32;20081;-83
2022/05/03 12:23:19;;;;;;;7.47;2.75;;;;;;;23.85;23.05;98406.44;4486968;32;20143;-82
2022/05/03 12:25:47;;;;;;;7.30;2.60;;;;;;;23.99;22.66;98402.19;4487014;32;20160;-82
2022/05/03 12:28:12;;;;;;;7.15;2.50;;;;;;;23.84;23.47;98401.28;4486893;32;20076;-83
2022/05/03 12:30:39;;;;;;;10.23;2.90;;;;;;;24.03;24.09;98400.78;4486894;32;20119;-83